sensor_id;sensor_type;location;lat;lon;timestamp;pressure;altitude;pressure_sealevel;temperature;humidity
72721;BME280;60835;50.974;10.322;2023-03-18T00:00:14;98383.56;;;10.22;100.00
72721;BME280;60835;50.974;10.322;2023-03-18T00:02:42;98385.34;;;10.22;100.00
72721;BME280;60835;50.974;10.322;2023-03-18T00:05:10;98394.00;;;10.24;100.00
72721;BME280;60835;50.974;10.322;2023-03-18T00:07:38;98382.69;;;10.14;100.00
72721;BME280;60835;50.974;10.322;2023-03-18T00:10:06;98394.59;;;10.18;100.00
72721;BME280;60835;50.974;10.322;2023-03-18T00:12:37;98387.97;;;10.14;100.00
72721;BME280;60835;50.974;10.322;2023-03-18T00:15:09;98386.56;;;10.10;100.00
72721;BME280;60835;50.974;10.322;2023-03-18T00:17:37;98382.19;;;10.01;100.00
72721;BME280;60835;50.974;10.322;2023-03-18T00:20:10;98373.19;;;9.94;100.00
72721;BME280;60835;50.974;10.322;2023-03-18T00:22:39;98370.63;;;10.02;100.00
72721;BME280;60835;50.974;10.322;2023-03-18T00:25:07;98371.09;;;9.97;100.00
72721;BME280;60835;50.974;10.322;2023-03-18T00:27:34;98372.53;;;9.92;100.00
72721;BME280;60835;50.974;10.322;2023-03-18T00:30:02;98361.59;;;9.87;100.00
72721;BME280;60835;50.974;10.322;2023-03-18T00:32:31;98369.97;;;9.82;100.00
72721;BME280;60835;50.974;10.322;2023-03-18T00:34:58;98372.47;;;9.84;100.00
72721;BME280;60835;50.974;10.322;2023-03-18T00:37:24;98377.06;;;9.82;100.00
72721;BME280;60835;50.974;10.322;2023-03-18T00:40:01;98402.22;;;10.03;100.00
72721;BME280;60835;50.974;10.322;2023-03-18T00:42:40;98384.06;;;9.91;100.00
72721;BME280;60835;50.974;10.322;2023-03-18T00:45:14;98392.84;;;9.91;100.00
72721;BME280;60835;50.974;10.322;2023-03-18T00:47:42;98383.19;;;9.82;100.00
72721;BME280;60835;50.974;10.322;2023-03-18T00:50:09;98380.00;;;9.78;100.00
72721;BME280;60835;50.974;10.322;2023-03-18T00:52:36;98344.22;;;9.66;100.00
72721;BME280;60835;50.974;10.322;2023-03-18T00:55:04;98377.97;;;9.72;100.00
72721;BME280;60835;50.974;10.322;2023-03-18T00:57:32;98373.50;;;9.73;100.00
72721;BME280;60835;50.974;10.322;2023-03-18T00:59:58;98381.97;;;9.76;100.00
72721;BME280;60835;50.974;10.322;2023-03-18T01:02:26;98369.28;;;9.62;100.00
72721;BME280;60835;50.974;10.322;2023-03-18T01:04:54;98375.78;;;9.68;100.00
72721;BME280;60835;50.974;10.322;2023-03-18T01:07:22;98380.69;;;9.80;100.00
72721;BME280;60835;50.974;10.322;2023-03-18T01:09:49;98376.63;;;9.68;100.00
72721;BME280;60835;50.974;10.322;2023-03-18T01:12:16;98385.50;;;9.85;100.00
72721;BME280;60835;50.974;10.322;2023-03-18T01:14:42;98412.25;;;10.35;100.00
72721;BME280;60835;50.974;10.322;2023-03-18T01:17:09;98390.56;;;9.96;100.00
72721;BME280;60835;50.974;10.322;2023-03-18T01:19:36;98382.09;;;9.75;100.00
72721;BME280;60835;50.974;10.322;2023-03-18T01:22:07;98367.09;;;9.75;100.00
72721;BME280;60835;50.974;10.322;2023-03-18T01:24:33;98397.38;;;9.81;100.00
72721;BME280;60835;50.974;10.322;2023-03-18T01:27:02;98391.03;;;9.74;100.00
72721;BME280;60835;50.974;10.322;2023-03-18T01:29:29;98384.75;;;9.75;100.00
72721;BME280;60835;50.974;10.322;2023-03-18T01:31:56;98393.38;;;9.95;100.00
72721;BME280;60835;50.974;10.322;2023-03-18T01:34:22;98403.09;;;9.94;100.00
72721;BME280;60835;50.974;10.322;2023-03-18T01:36:50;98406.38;;;10.06;100.00
72721;BME280;60835;50.974;10.322;2023-03-18T01:39:21;98414.44;;;10.22;100.00
72721;BME280;60835;50.974;10.322;2023-03-18T01:41:49;98414.13;;;10.07;100.00
72721;BME280;60835;50.974;10.322;2023-03-18T01:44:20;98427.28;;;10.17;100.00
72721;BME280;60835;50.974;10.322;2023-03-18T01:46:48;98435.09;;;10.18;100.00
72721;BME280;60835;50.974;10.322;2023-03-18T01:49:16;98437.16;;;10.50;100.00
72721;BME280;60835;50.974;10.322;2023-03-18T01:51:48;98432.09;;;10.57;100.00
72721;BME280;60835;50.974;10.322;2023-03-18T01:54:17;98429.72;;;10.46;100.00
72721;BME280;60835;50.974;10.322;2023-03-18T01:56:46;98438.31;;;10.48;100.00
72721;BME280;60835;50.974;10.322;2023-03-18T01:59:14;98440.13;;;10.47;100.00
72721;BME280;60835;50.974;10.322;2023-03-18T02:01:58;98442.94;;;10.71;100.00
72721;BME280;60835;50.974;10.322;2023-03-18T02:04:35;98451.56;;;10.73;100.00
72721;BME280;60835;50.974;10.322;2023-03-18T02:07:04;98444.63;;;10.55;100.00
72721;BME280;60835;50.974;10.322;2023-03-18T02:09:41;98441.69;;;10.58;100.00
72721;BME280;60835;50.974;10.322;2023-03-18T02:12:07;98462.94;;;11.17;100.00
72721;BME280;60835;50.974;10.322;2023-03-18T02:14:34;98465.59;;;11.25;100.00
72721;BME280;60835;50.974;10.322;2023-03-18T02:17:11;98473.13;;;11.38;100.00
72721;BME280;60835;50.974;10.322;2023-03-18T02:22:39;98468.78;;;11.29;100.00
72721;BME280;60835;50.974;10.322;2023-03-18T02:25:30;98470.34;;;11.14;100.00
72721;BME280;60835;50.974;10.322;2023-03-18T02:28:06;98457.81;;;10.90;100.00
72721;BME280;60835;50.974;10.322;2023-03-18T02:30:46;98464.03;;;11.07;100.00
72721;BME280;60835;50.974;10.322;2023-03-18T02:33:15;98464.97;;;10.97;100.00
72721;BME280;60835;50.974;10.322;2023-03-18T02:35:44;98452.63;;;10.63;100.00
72721;BME280;60835;50.974;10.322;2023-03-18T02:38:11;98454.31;;;10.46;100.00
72721;BME280;60835;50.974;10.322;2023-03-18T02:40:40;98462.50;;;10.35;100.00
72721;BME280;60835;50.974;10.322;2023-03-18T02:43:21;98437.19;;;10.15;100.00
72721;BME280;60835;50.974;10.322;2023-03-18T02:48:37;98433.19;;;10.11;100.00
72721;BME280;60835;50.974;10.322;2023-03-18T02:51:05;98437.56;;;10.20;100.00
72721;BME280;60835;50.974;10.322;2023-03-18T02:53:33;98451.47;;;10.22;100.00
72721;BME280;60835;50.974;10.322;2023-03-18T02:56:00;98444.22;;;10.24;100.00
72721;BME280;60835;50.974;10.322;2023-03-18T02:58:27;98463.63;;;10.15;100.00
72721;BME280;60835;50.974;10.322;2023-03-18T03:00:54;98454.94;;;10.22;100.00
72721;BME280;60835;50.974;10.322;2023-03-18T03:03:21;98460.47;;;10.29;100.00
72721;BME280;60835;50.974;10.322;2023-03-18T03:05:47;98449.44;;;10.16;100.00
72721;BME280;60835;50.974;10.322;2023-03-18T03:08:14;98441.88;;;10.21;100.00
72721;BME280;60835;50.974;10.322;2023-03-18T03:10:41;98451.88;;;10.27;100.00
72721;BME280;60835;50.974;10.322;2023-03-18T03:13:08;98457.66;;;10.30;100.00
72721;BME280;60835;50.974;10.322;2023-03-18T03:15:38;98442.19;;;10.18;100.00
72721;BME280;60835;50.974;10.322;2023-03-18T03:18:06;98453.59;;;10.18;100.00
72721;BME280;60835;50.974;10.322;2023-03-18T03:20:32;98456.91;;;10.20;100.00
72721;BME280;60835;50.974;10.322;2023-03-18T03:23:02;98462.00;;;10.14;100.00
72721;BME280;60835;50.974;10.322;2023-03-18T03:25:29;98456.97;;;10.11;100.00
72721;BME280;60835;50.974;10.322;2023-03-18T03:27:56;98459.59;;;10.11;100.00
72721;BME280;60835;50.974;10.322;2023-03-18T03:30:22;98457.56;;;10.05;100.00
72721;BME280;60835;50.974;10.322;2023-03-18T03:32:49;98459.34;;;10.14;100.00
72721;BME280;60835;50.974;10.322;2023-03-18T03:35:18;98450.78;;;10.20;100.00
72721;BME280;60835;50.974;10.322;2023-03-18T03:37:45;98449.34;;;10.08;100.00
72721;BME280;60835;50.974;10.322;2023-03-18T03:40:16;98450.56;;;10.13;100.00
72721;BME280;60835;50.974;10.322;2023-03-18T03:42:43;98454.44;;;10.19;100.00
72721;BME280;60835;50.974;10.322;2023-03-18T03:45:12;98449.44;;;10.16;100.00
72721;BME280;60835;50.974;10.322;2023-03-18T03:47:40;98456.75;;;10.22;100.00
72721;BME280;60835;50.974;10.322;2023-03-18T03:50:08;98455.84;;;10.31;100.00
72721;BME280;60835;50.974;10.322;2023-03-18T03:52:36;98452.59;;;10.19;100.00
72721;BME280;60835;50.974;10.322;2023-03-18T03:55:09;98449.22;;;10.27;100.00
72721;BME280;60835;50.974;10.322;2023-03-18T03:57:36;98444.72;;;10.27;100.00
72721;BME280;60835;50.974;10.322;2023-03-18T04:00:08;98454.88;;;10.32;100.00
72721;BME280;60835;50.974;10.322;2023-03-18T04:02:40;98452.16;;;10.24;100.00
72721;BME280;60835;50.974;10.322;2023-03-18T04:05:10;98448.22;;;10.28;100.00
72721;BME280;60835;50.974;10.322;2023-03-18T04:07:38;98457.44;;;10.24;100.00
72721;BME280;60835;50.974;10.322;2023-03-18T04:10:06;98456.75;;;10.22;100.00
72721;BME280;60835;50.974;10.322;2023-03-18T04:12:35;98448.03;;;10.12;100.00
72721;BME280;60835;50.974;10.322;2023-03-18T04:15:03;98456.16;;;10.28;100.00
72721;BME280;60835;50.974;10.322;2023-03-18T04:17:29;98450.09;;;10.35;100.00
72721;BME280;60835;50.974;10.322;2023-03-18T04:19:56;98442.72;;;10.21;100.00
72721;BME280;60835;50.974;10.322;2023-03-18T04:22:24;98461.50;;;10.36;100.00
72721;BME280;60835;50.974;10.322;2023-03-18T04:24:51;98456.31;;;10.26;100.00
72721;BME280;60835;50.974;10.322;2023-03-18T04:27:17;98454.88;;;10.32;100.00
72721;BME280;60835;50.974;10.322;2023-03-18T04:29:44;98451.94;;;10.35;100.00
72721;BME280;60835;50.974;10.322;2023-03-18T04:32:12;98456.72;;;10.57;100.00
72721;BME280;60835;50.974;10.322;2023-03-18T04:34:38;98448.34;;;10.44;100.00
72721;BME280;60835;50.974;10.322;2023-03-18T04:37:05;98457.72;;;10.56;100.00
72721;BME280;60835;50.974;10.322;2023-03-18T04:39:33;98471.94;;;10.55;100.00
72721;BME280;60835;50.974;10.322;2023-03-18T04:42:00;98457.72;;;10.56;100.00
72721;BME280;60835;50.974;10.322;2023-03-18T04:44:27;98463.53;;;10.60;100.00
72721;BME280;60835;50.974;10.322;2023-03-18T04:46:54;98442.81;;;10.55;100.00
72721;BME280;60835;50.974;10.322;2023-03-18T04:49:21;98440.72;;;10.59;100.00
72721;BME280;60835;50.974;10.322;2023-03-18T04:51:47;98424.78;;;10.51;100.00
72721;BME280;60835;50.974;10.322;2023-03-18T04:54:14;98419.22;;;10.62;100.00
72721;BME280;60835;50.974;10.322;2023-03-18T04:56:41;98398.28;;;10.43;100.00
72721;BME280;60835;50.974;10.322;2023-03-18T04:59:09;98414.97;;;10.43;100.00
72721;BME280;60835;50.974;10.322;2023-03-18T05:01:36;98381.97;;;10.29;100.00
72721;BME280;60835;50.974;10.322;2023-03-18T05:04:03;98386.25;;;10.48;100.00
72721;BME280;60835;50.974;10.322;2023-03-18T05:06:30;98357.41;;;10.37;100.00
72721;BME280;60835;50.974;10.322;2023-03-18T05:08:59;98352.00;;;10.21;100.00
72721;BME280;60835;50.974;10.322;2023-03-18T05:11:27;98359.63;;;10.24;100.00
72721;BME280;60835;50.974;10.322;2023-03-18T05:13:53;98379.41;;;10.37;100.00
72721;BME280;60835;50.974;10.322;2023-03-18T05:16:20;98367.25;;;10.27;100.00
72721;BME280;60835;50.974;10.322;2023-03-18T05:18:47;98350.31;;;10.20;100.00
72721;BME280;60835;50.974;10.322;2023-03-18T05:21:13;98362.78;;;10.27;100.00
72721;BME280;60835;50.974;10.322;2023-03-18T05:23:40;98355.84;;;10.26;100.00
72721;BME280;60835;50.974;10.322;2023-03-18T05:26:07;98363.97;;;10.33;100.00
72721;BME280;60835;50.974;10.322;2023-03-18T05:28:35;98372.91;;;10.32;100.00
72721;BME280;60835;50.974;10.322;2023-03-18T05:31:02;98366.78;;;10.31;100.00
72721;BME280;60835;50.974;10.322;2023-03-18T05:33:29;98378.88;;;10.34;100.00
72721;BME280;60835;50.974;10.322;2023-03-18T05:35:56;98379.69;;;10.34;100.00
72721;BME280;60835;50.974;10.322;2023-03-18T05:38:23;98374.25;;;10.36;100.00
72721;BME280;60835;50.974;10.322;2023-03-18T05:40:49;98375.91;;;10.19;100.00
72721;BME280;60835;50.974;10.322;2023-03-18T05:43:20;98355.81;;;10.09;100.00
72721;BME280;60835;50.974;10.322;2023-03-18T05:45:49;98341.25;;;10.05;100.00
72721;BME280;60835;50.974;10.322;2023-03-18T05:48:16;98340.97;;;10.08;100.00
72721;BME280;60835;50.974;10.322;2023-03-18T05:50:43;98336.91;;;10.13;100.00
72721;BME280;60835;50.974;10.322;2023-03-18T05:53:10;98349.19;;;10.22;100.00
72721;BME280;60835;50.974;10.322;2023-03-18T05:55:42;98342.16;;;10.31;100.00
72721;BME280;60835;50.974;10.322;2023-03-18T05:58:14;98371.81;;;10.43;100.00
72721;BME280;60835;50.974;10.322;2023-03-18T06:00:40;98369.47;;;10.39;100.00
72721;BME280;60835;50.974;10.322;2023-03-18T06:03:07;98365.41;;;10.45;100.00
72721;BME280;60835;50.974;10.322;2023-03-18T06:05:34;98372.66;;;10.43;100.00
72721;BME280;60835;50.974;10.322;2023-03-18T06:08:01;98384.28;;;10.50;100.00
72721;BME280;60835;50.974;10.322;2023-03-18T06:10:28;98378.31;;;10.48;100.00
72721;BME280;60835;50.974;10.322;2023-03-18T06:12:55;98382.81;;;10.81;100.00
72721;BME280;60835;50.974;10.322;2023-03-18T06:15:22;98401.16;;;10.57;100.00
72721;BME280;60835;50.974;10.322;2023-03-18T06:17:49;98395.03;;;10.57;100.00
72721;BME280;60835;50.974;10.322;2023-03-18T06:20:17;98397.38;;;10.60;100.00
72721;BME280;60835;50.974;10.322;2023-03-18T06:22:45;98393.53;;;10.54;100.00
72721;BME280;60835;50.974;10.322;2023-03-18T06:25:20;98391.59;;;10.56;100.00
72721;BME280;60835;50.974;10.322;2023-03-18T06:27:46;98435.34;;;11.36;100.00
72721;BME280;60835;50.974;10.322;2023-03-18T06:30:14;98458.28;;;11.53;100.00
72721;BME280;60835;50.974;10.322;2023-03-18T06:32:41;98460.63;;;11.56;100.00
72721;BME280;60835;50.974;10.322;2023-03-18T06:35:09;98474.28;;;11.69;100.00
72721;BME280;60835;50.974;10.322;2023-03-18T06:37:37;98473.81;;;11.82;100.00
72721;BME280;60835;50.974;10.322;2023-03-18T06:40:05;98479.66;;;11.85;100.00
72721;BME280;60835;50.974;10.322;2023-03-18T06:42:32;98492.25;;;11.91;100.00
72721;BME280;60835;50.974;10.322;2023-03-18T06:44:59;98482.97;;;11.87;100.00
72721;BME280;60835;50.974;10.322;2023-03-18T06:47:25;98509.19;;;12.06;100.00
72721;BME280;60835;50.974;10.322;2023-03-18T06:49:52;98513.66;;;12.06;100.00
72721;BME280;60835;50.974;10.322;2023-03-18T06:52:19;98524.78;;;12.09;100.00
72721;BME280;60835;50.974;10.322;2023-03-18T06:54:46;98521.13;;;12.10;100.00
72721;BME280;60835;50.974;10.322;2023-03-18T06:57:12;98518.16;;;12.13;100.00
72721;BME280;60835;50.974;10.322;2023-03-18T06:59:39;98511.38;;;12.11;100.00
72721;BME280;60835;50.974;10.322;2023-03-18T07:02:08;98532.78;;;12.17;100.00
72721;BME280;60835;50.974;10.322;2023-03-18T07:04:35;98533.13;;;12.23;100.00
72721;BME280;60835;50.974;10.322;2023-03-18T07:07:01;98533.78;;;12.25;100.00
72721;BME280;60835;50.974;10.322;2023-03-18T07:09:28;98534.41;;;12.18;100.00
72721;BME280;60835;50.974;10.322;2023-03-18T07:11:54;98534.75;;;12.23;100.00
72721;BME280;60835;50.974;10.322;2023-03-18T07:14:22;98542.06;;;12.21;100.00
72721;BME280;60835;50.974;10.322;2023-03-18T07:16:48;98540.41;;;12.29;100.00
72721;BME280;60835;50.974;10.322;2023-03-18T07:19:16;98554.34;;;12.31;100.00
72721;BME280;60835;50.974;10.322;2023-03-18T07:21:43;98552.69;;;12.30;100.00
72721;BME280;60835;50.974;10.322;2023-03-18T07:24:11;98555.16;;;12.23;100.00
72721;BME280;60835;50.974;10.322;2023-03-18T07:26:38;98562.50;;;12.53;100.00
72721;BME280;60835;50.974;10.322;2023-03-18T07:29:05;98572.97;;;12.71;100.00
72721;BME280;60835;50.974;10.322;2023-03-18T07:31:31;98577.66;;;12.77;100.00
72721;BME280;60835;50.974;10.322;2023-03-18T07:33:58;98581.66;;;13.21;100.00
72721;BME280;60835;50.974;10.322;2023-03-18T07:36:24;98592.78;;;13.49;100.00
72721;BME280;60835;50.974;10.322;2023-03-18T07:38:52;98607.53;;;13.60;100.00
72721;BME280;60835;50.974;10.322;2023-03-18T07:41:18;98605.88;;;13.59;100.00
72721;BME280;60835;50.974;10.322;2023-03-18T07:43:45;98611.66;;;13.78;100.00
72721;BME280;60835;50.974;10.322;2023-03-18T07:46:11;98606.72;;;13.43;100.00
72721;BME280;60835;50.974;10.322;2023-03-18T07:48:38;98603.16;;;13.83;100.00
72721;BME280;60835;50.974;10.322;2023-03-18T07:51:05;98604.06;;;13.51;100.00
72721;BME280;60835;50.974;10.322;2023-03-18T07:53:32;98606.69;;;13.67;100.00
72721;BME280;60835;50.974;10.322;2023-03-18T07:55:59;98619.22;;;14.06;100.00
72721;BME280;60835;50.974;10.322;2023-03-18T07:58:26;98609.91;;;14.48;100.00
72721;BME280;60835;50.974;10.322;2023-03-18T08:00:52;98606.28;;;14.95;100.00
72721;BME280;60835;50.974;10.322;2023-03-18T08:03:19;98613.63;;;14.93;100.00
72721;BME280;60835;50.974;10.322;2023-03-18T08:05:46;98611.47;;;15.56;100.00
72721;BME280;60835;50.974;10.322;2023-03-18T08:08:12;98609.56;;;14.51;100.00
72721;BME280;60835;50.974;10.322;2023-03-18T08:10:39;98614.31;;;13.70;100.00
72721;BME280;60835;50.974;10.322;2023-03-18T08:13:06;98625.66;;;14.11;100.00
72721;BME280;60835;50.974;10.322;2023-03-18T08:15:33;98610.78;;;13.94;100.00
72721;BME280;60835;50.974;10.322;2023-03-18T08:18:00;98638.06;;;13.72;100.00
72721;BME280;60835;50.974;10.322;2023-03-18T08:20:27;98612.88;;;13.43;100.00
72721;BME280;60835;50.974;10.322;2023-03-18T08:22:54;98625.50;;;13.41;100.00
72721;BME280;60835;50.974;10.322;2023-03-18T08:25:22;98617.53;;;13.17;100.00
72721;BME280;60835;50.974;10.322;2023-03-18T08:27:49;98613.84;;;12.94;100.00
72721;BME280;60835;50.974;10.322;2023-03-18T08:30:17;98617.69;;;13.48;100.00
72721;BME280;60835;50.974;10.322;2023-03-18T08:32:44;98599.09;;;13.24;100.00
72721;BME280;60835;50.974;10.322;2023-03-18T08:35:11;98631.72;;;14.75;100.00
72721;BME280;60835;50.974;10.322;2023-03-18T08:37:38;98630.22;;;15.48;100.00
72721;BME280;60835;50.974;10.322;2023-03-18T08:40:05;98641.06;;;14.71;100.00
72721;BME280;60835;50.974;10.322;2023-03-18T08:42:32;98640.66;;;14.51;100.00
72721;BME280;60835;50.974;10.322;2023-03-18T08:44:59;98645.38;;;15.48;100.00
72721;BME280;60835;50.974;10.322;2023-03-18T08:47:26;98643.47;;;15.11;100.00
72721;BME280;60835;50.974;10.322;2023-03-18T08:49:54;98637.97;;;15.35;100.00
72721;BME280;60835;50.974;10.322;2023-03-18T08:52:21;98643.81;;;15.31;100.00
72721;BME280;60835;50.974;10.322;2023-03-18T08:54:48;98655.31;;;15.54;100.00
72721;BME280;60835;50.974;10.322;2023-03-18T08:57:15;98640.19;;;16.42;100.00
72721;BME280;60835;50.974;10.322;2023-03-18T08:59:42;98642.88;;;16.27;100.00
72721;BME280;60835;50.974;10.322;2023-03-18T09:02:12;98645.44;;;16.21;100.00
72721;BME280;60835;50.974;10.322;2023-03-18T09:04:40;98651.81;;;17.21;100.00
72721;BME280;60835;50.974;10.322;2023-03-18T09:07:07;98648.81;;;17.09;100.00
72721;BME280;60835;50.974;10.322;2023-03-18T09:09:34;98657.44;;;18.02;100.00
72721;BME280;60835;50.974;10.322;2023-03-18T09:12:09;98647.59;;;18.91;100.00
72721;BME280;60835;50.974;10.322;2023-03-18T09:14:37;98652.53;;;18.94;100.00
72721;BME280;60835;50.974;10.322;2023-03-18T09:17:04;98641.94;;;19.73;100.00
72721;BME280;60835;50.974;10.322;2023-03-18T09:19:31;98640.72;;;19.56;100.00
72721;BME280;60835;50.974;10.322;2023-03-18T09:21:58;98650.19;;;19.45;100.00
72721;BME280;60835;50.974;10.322;2023-03-18T09:24:24;98653.50;;;18.33;100.00
72721;BME280;60835;50.974;10.322;2023-03-18T09:26:51;98651.41;;;20.28;100.00
72721;BME280;60835;50.974;10.322;2023-03-18T09:29:18;98656.59;;;18.70;100.00
72721;BME280;60835;50.974;10.322;2023-03-18T09:31:44;98644.81;;;19.52;100.00
72721;BME280;60835;50.974;10.322;2023-03-18T09:34:11;98648.41;;;18.92;100.00
72721;BME280;60835;50.974;10.322;2023-03-18T09:36:39;98647.88;;;20.27;100.00
72721;BME280;60835;50.974;10.322;2023-03-18T09:39:06;98644.63;;;21.14;100.00
72721;BME280;60835;50.974;10.322;2023-03-18T09:41:38;98647.84;;;20.40;100.00
72721;BME280;60835;50.974;10.322;2023-03-18T09:44:31;98642.06;;;20.88;100.00
72721;BME280;60835;50.974;10.322;2023-03-18T09:52:51;98650.88;;;21.08;100.00
72721;BME280;60835;50.974;10.322;2023-03-18T09:55:28;98664.13;;;19.08;100.00
72721;BME280;60835;50.974;10.322;2023-03-18T09:58:01;98660.50;;;20.27;100.00
72721;BME280;60835;50.974;10.322;2023-03-18T10:00:35;98649.69;;;20.40;100.00
72721;BME280;60835;50.974;10.322;2023-03-18T10:03:05;98657.94;;;20.45;100.00
72721;BME280;60835;50.974;10.322;2023-03-18T10:05:55;98659.78;;;21.40;100.00
72721;BME280;60835;50.974;10.322;2023-03-18T10:11:01;98659.16;;;20.55;100.00
72721;BME280;60835;50.974;10.322;2023-03-18T10:13:34;98660.25;;;19.36;100.00
72721;BME280;60835;50.974;10.322;2023-03-18T10:16:03;98664.44;;;19.98;100.00
72721;BME280;60835;50.974;10.322;2023-03-18T10:18:35;98656.03;;;21.09;100.00
72721;BME280;60835;50.974;10.322;2023-03-18T10:21:19;98659.09;;;20.69;100.00
72721;BME280;60835;50.974;10.322;2023-03-18T10:26:26;98661.47;;;20.96;100.00
72721;BME280;60835;50.974;10.322;2023-03-18T10:39:46;98670.78;;;21.32;100.00
72721;BME280;60835;50.974;10.322;2023-03-18T10:42:26;98667.38;;;21.18;100.00
72721;BME280;60835;50.974;10.322;2023-03-18T10:45:04;98666.38;;;20.61;100.00
72721;BME280;60835;50.974;10.322;2023-03-18T10:47:37;98663.56;;;22.13;100.00
72721;BME280;60835;50.974;10.322;2023-03-18T10:50:29;98659.38;;;21.67;100.00
72721;BME280;60835;50.974;10.322;2023-03-18T10:56:05;98663.28;;;21.96;100.00
72721;BME280;60835;50.974;10.322;2023-03-18T10:58:32;98660.91;;;20.24;100.00
72721;BME280;60835;50.974;10.322;2023-03-18T11:00:59;98658.97;;;20.95;100.00
72721;BME280;60835;50.974;10.322;2023-03-18T11:03:30;98660.91;;;20.30;100.00
72721;BME280;60835;50.974;10.322;2023-03-18T11:06:01;98661.41;;;21.03;100.00
72721;BME280;60835;50.974;10.322;2023-03-18T11:08:37;98668.75;;;21.27;100.00
72721;BME280;60835;50.974;10.322;2023-03-18T11:13:55;98657.97;;;22.87;100.00
72721;BME280;60835;50.974;10.322;2023-03-18T11:16:39;98665.22;;;20.89;100.00
72721;BME280;60835;50.974;10.322;2023-03-18T11:19:27;98657.63;;;22.59;100.00
72721;BME280;60835;50.974;10.322;2023-03-18T11:22:24;98657.72;;;22.16;100.00
72721;BME280;60835;50.974;10.322;2023-03-18T11:27:57;98662.09;;;21.85;100.00
72721;BME280;60835;50.974;10.322;2023-03-18T11:30:27;98661.34;;;19.55;100.00
72721;BME280;60835;50.974;10.322;2023-03-18T11:33:12;98647.00;;;20.91;100.00
72721;BME280;60835;50.974;10.322;2023-03-18T11:36:13;98630.75;;;23.18;100.00
72721;BME280;60835;50.974;10.322;2023-03-18T11:38:42;98644.16;;;22.40;100.00
72721;BME280;60835;50.974;10.322;2023-03-18T11:41:21;98641.06;;;21.51;100.00
72721;BME280;60835;50.974;10.322;2023-03-18T11:44:05;98648.09;;;21.77;100.00
72721;BME280;60835;50.974;10.322;2023-03-18T11:46:42;98631.50;;;22.41;100.00
72721;BME280;60835;50.974;10.322;2023-03-18T11:49:22;98633.88;;;21.95;100.00
72721;BME280;60835;50.974;10.322;2023-03-18T11:55:20;98627.69;;;21.38;100.00
72721;BME280;60835;50.974;10.322;2023-03-18T12:01:00;98613.09;;;24.50;100.00
72721;BME280;60835;50.974;10.322;2023-03-18T12:03:44;98631.00;;;21.90;100.00
72721;BME280;60835;50.974;10.322;2023-03-18T12:06:24;98622.06;;;22.32;100.00
72721;BME280;60835;50.974;10.322;2023-03-18T12:17:26;98550.91;;;21.11;100.00
72721;BME280;60835;50.974;10.322;2023-03-18T12:29:00;98611.00;;;23.59;100.00
72721;BME280;60835;50.974;10.322;2023-03-18T12:31:51;98627.59;;;22.01;100.00
72721;BME280;60835;50.974;10.322;2023-03-18T12:34:32;98624.53;;;21.72;100.00
72721;BME280;60835;50.974;10.322;2023-03-18T12:45:35;98606.09;;;23.56;100.00
72721;BME280;60835;50.974;10.322;2023-03-18T12:48:31;98615.19;;;22.54;100.00
72721;BME280;60835;50.974;10.322;2023-03-18T12:51:14;98609.50;;;21.58;100.00
72721;BME280;60835;50.974;10.322;2023-03-18T12:53:49;98614.94;;;21.27;100.00
72721;BME280;60835;50.974;10.322;2023-03-18T12:56:21;98603.94;;;23.05;100.00
72721;BME280;60835;50.974;10.322;2023-03-18T12:58:54;98610.53;;;22.79;100.00
72721;BME280;60835;50.974;10.322;2023-03-18T13:01:33;98615.78;;;22.20;100.00
72721;BME280;60835;50.974;10.322;2023-03-18T13:04:15;98616.72;;;21.64;100.00
72721;BME280;60835;50.974;10.322;2023-03-18T13:06:51;98609.28;;;22.93;100.00
72721;BME280;60835;50.974;10.322;2023-03-18T13:12:10;98614.41;;;23.43;100.00
72721;BME280;60835;50.974;10.322;2023-03-18T13:14:59;98610.53;;;22.79;100.00
72721;BME280;60835;50.974;10.322;2023-03-18T13:17:37;98599.66;;;24.27;100.00
72721;BME280;60835;50.974;10.322;2023-03-18T13:31:22;98584.91;;;24.86;100.00
72721;BME280;60835;50.974;10.322;2023-03-18T13:34:01;98599.00;;;23.02;100.00
72721;BME280;60835;50.974;10.322;2023-03-18T13:42:13;98613.94;;;20.84;100.00
72721;BME280;60835;50.974;10.322;2023-03-18T13:47:16;98595.75;;;22.16;100.00
72721;BME280;60835;50.974;10.322;2023-03-18T13:49:45;98602.91;;;21.79;100.00
72721;BME280;60835;50.974;10.322;2023-03-18T13:55:18;98603.31;;;21.33;100.00
72721;BME280;60835;50.974;10.322;2023-03-18T13:58:18;98601.16;;;20.28;100.00
72721;BME280;60835;50.974;10.322;2023-03-18T14:00:44;98607.25;;;19.71;100.00
72721;BME280;60835;50.974;10.322;2023-03-18T14:03:19;98593.22;;;19.56;100.00
72721;BME280;60835;50.974;10.322;2023-03-18T14:06:17;98589.03;;;19.86;100.00
72721;BME280;60835;50.974;10.322;2023-03-18T14:13:59;98581.84;;;19.08;100.00
72721;BME280;60835;50.974;10.322;2023-03-18T14:19:17;98579.59;;;19.44;100.00
72721;BME280;60835;50.974;10.322;2023-03-18T14:21:49;98585.38;;;19.48;100.00
72721;BME280;60835;50.974;10.322;2023-03-18T14:27:24;98584.50;;;19.28;100.00
72721;BME280;60835;50.974;10.322;2023-03-18T14:29:51;98582.47;;;19.23;100.00
72721;BME280;60835;50.974;10.322;2023-03-18T14:34:56;98582.50;;;19.43;100.00
72721;BME280;60835;50.974;10.322;2023-03-18T14:37:29;98576.47;;;19.67;100.00
72721;BME280;60835;50.974;10.322;2023-03-18T14:40:13;98572.78;;;19.62;100.00
72721;BME280;60835;50.974;10.322;2023-03-18T14:42:47;98571.28;;;19.98;100.00